Etusivu
METAR-TAF:

METAR-TAF

Lentoasemat :

Tongatapu, Tonga

Leveyspiiri: 21-14S, Pituuspiiri: 175-09W, korkeus merenpinnasta: 38 m

Tämänhetkinen sää

Tämä raportti tehtiin 16 minuuttia sitten, kello 02.00 UTC
Tuuli 7 kn idästä/kaakosta
Lämpötila 29°C
Kosteus 74%
Ilmanpaine 1011 hPa
Näkyvyys 10 km tai enemmän
Muutamia pilviä 1200 ft:n korkeudessa
Muutamia pilviä 1700 ft:n korkeudessa, Kasvava cumulus-pilvi.
Hajanaisia pilviä 12000 ft:n korkeudessa

METAR: NFTF 140200Z 12007KT 9999 FEW012 FEW017TCU SCT120 29/24 Q1011

Aika: 15:16 (02:16 UTC)

Sääennuste

Tämä raportti tehtiin 3 tuntia ja 1 minuuttia sitten, kello 23.15 UTC
Ennuste voimassa 14. päivästä klo 00 UTC - 14. päivään klo 24 UTC
Tuuli 8 kn idästä/kaakosta
Näkyvyys 10 km tai enemmän
Hajanaisia pilviä 1400 ft:n korkeudessa
Hajonneita pilviä 10000 ft:n korkeudessa

TAF: NFTF 132315Z 1400/1424 12008KT 9999 SCT014 BKN100

Säähavainnot ja -ennusteet yli 4000 lentoasemalta (METAR- ja TAF-raportit).

Käytössä olevat sääasemat on merkitty karttaan keltaisilla ja punaisilla pisteillä.

Aseta hiiri pisteen päälle nähdäksesi sääaseman nimen.

Klikkaa sitten nähdäksesi säähavainnot ja -ennusteet.

Kartan vaihtaminen: klikkaa mustalla rastilla varustettuja vihreitä pisteitä, niin voit zoomata sisään; viivalla varustettua vihreää pistettä, niin voit zoomata ulos tai vihreitä nuolia, niin pääset viereisille kartoille.


METAR-TAF: